sensor_id;sensor_type;location;lat;lon;timestamp;pressure;altitude;pressure_sealevel;temperature;humidity
75629;BME280;64213;46.452;16.994;2022-12-18T00:00:10;101546.75;;;-2.66;96.39
75629;BME280;64213;46.452;16.994;2022-12-18T00:03:15;101553.00;;;-2.51;95.92
75629;BME280;64213;46.452;16.994;2022-12-18T00:06:18;101555.63;;;-2.48;95.50
75629;BME280;64213;46.452;16.994;2022-12-18T00:09:21;101561.72;;;-2.43;95.31
75629;BME280;64213;46.452;16.994;2022-12-18T00:12:25;101564.38;;;-2.42;95.23
75629;BME280;64213;46.452;16.994;2022-12-18T00:15:27;101565.13;;;-2.47;95.21
75629;BME280;64213;46.452;16.994;2022-12-18T00:18:29;101567.78;;;-2.44;95.08
75629;BME280;64213;46.452;16.994;2022-12-18T00:21:32;101569.47;;;-2.48;95.05
75629;BME280;64213;46.452;16.994;2022-12-18T00:24:35;101571.91;;;-2.55;95.12
75629;BME280;64213;46.452;16.994;2022-12-18T00:27:37;101579.69;;;-2.55;95.09
75629;BME280;64213;46.452;16.994;2022-12-18T00:30:39;101583.19;;;-2.55;95.09
75629;BME280;64213;46.452;16.994;2022-12-18T00:33:41;101584.88;;;-2.55;95.16
75629;BME280;64213;46.452;16.994;2022-12-18T00:36:43;101598.72;;;-2.55;95.19
75629;BME280;64213;46.452;16.994;2022-12-18T00:39:47;101593.50;;;-2.57;95.08
75629;BME280;64213;46.452;16.994;2022-12-18T00:42:50;101595.13;;;-2.65;95.29
75629;BME280;64213;46.452;16.994;2022-12-18T00:45:58;101589.91;;;-2.66;95.39
75629;BME280;64213;46.452;16.994;2022-12-18T00:49:00;101594.22;;;-2.67;95.48
75629;BME280;64213;46.452;16.994;2022-12-18T00:52:02;101600.16;;;-2.72;95.57
75629;BME280;64213;46.452;16.994;2022-12-18T00:55:04;101603.56;;;-2.76;95.71
75629;BME280;64213;46.452;16.994;2022-12-18T00:58:09;101607.97;;;-2.69;95.70
75629;BME280;64213;46.452;16.994;2022-12-18T01:01:11;101608.06;;;-2.65;95.54
75629;BME280;64213;46.452;16.994;2022-12-18T01:04:13;101609.00;;;-2.61;95.50
75629;BME280;64213;46.452;16.994;2022-12-18T01:07:16;101618.50;;;-2.59;95.44
75629;BME280;64213;46.452;16.994;2022-12-18T01:10:18;101624.53;;;-2.61;95.42
75629;BME280;64213;46.452;16.994;2022-12-18T01:13:20;101630.53;;;-2.64;95.31
75629;BME280;64213;46.452;16.994;2022-12-18T01:16:22;101631.28;;;-2.69;95.33
75629;BME280;64213;46.452;16.994;2022-12-18T01:19:24;101632.97;;;-2.71;95.37
75629;BME280;64213;46.452;16.994;2022-12-18T01:22:27;101629.53;;;-2.72;95.29
75629;BME280;64213;46.452;16.994;2022-12-18T01:25:29;101640.94;;;-2.61;95.18
75629;BME280;64213;46.452;16.994;2022-12-18T01:28:31;101650.50;;;-2.57;94.98
75629;BME280;64213;46.452;16.994;2022-12-18T01:31:34;101645.34;;;-2.53;94.86
75629;BME280;64213;46.452;16.994;2022-12-18T01:34:37;101645.19;;;-2.64;94.93
75629;BME280;64213;46.452;16.994;2022-12-18T01:37:39;101650.25;;;-2.72;95.09
75629;BME280;64213;46.452;16.994;2022-12-18T01:40:41;101656.16;;;-2.79;95.19
75629;BME280;64213;46.452;16.994;2022-12-18T01:46:47;101650.25;;;-2.72;95.14
75629;BME280;64213;46.452;16.994;2022-12-18T01:49:50;101651.19;;;-2.67;94.90
75629;BME280;64213;46.452;16.994;2022-12-18T01:53:02;101663.28;;;-2.67;94.84
75629;BME280;64213;46.452;16.994;2022-12-18T01:56:06;101663.34;;;-2.64;94.78
75629;BME280;64213;46.452;16.994;2022-12-18T01:59:09;101666.69;;;-2.68;94.73
75629;BME280;64213;46.452;16.994;2022-12-18T02:02:14;101668.34;;;-2.73;94.81
75629;BME280;64213;46.452;16.994;2022-12-18T02:05:23;101672.56;;;-2.80;94.87
75629;BME280;64213;46.452;16.994;2022-12-18T02:08:33;101671.53;;;-2.88;95.06
75629;BME280;64213;46.452;16.994;2022-12-18T02:18:13;101681.91;;;-2.88;95.03
75629;BME280;64213;46.452;16.994;2022-12-18T02:24:35;101671.38;;;-2.99;95.07
75629;BME280;64213;46.452;16.994;2022-12-18T02:27:41;101676.63;;;-2.94;94.95
75629;BME280;64213;46.452;16.994;2022-12-18T02:30:47;101672.25;;;-2.98;94.81
75629;BME280;64213;46.452;16.994;2022-12-18T02:33:53;101678.44;;;-2.90;94.45
75629;BME280;64213;46.452;16.994;2022-12-18T02:36:59;101682.00;;;-2.82;93.81
75629;BME280;64213;46.452;16.994;2022-12-18T02:40:04;101690.59;;;-2.86;93.78
75629;BME280;64213;46.452;16.994;2022-12-18T02:43:09;101689.66;;;-2.88;93.94
75629;BME280;64213;46.452;16.994;2022-12-18T02:56:20;101692.78;;;-3.08;94.83
75629;BME280;64213;46.452;16.994;2022-12-18T02:59:38;101698.00;;;-3.06;95.01
75629;BME280;64213;46.452;16.994;2022-12-18T03:02:52;101703.19;;;-3.05;95.19
75629;BME280;64213;46.452;16.994;2022-12-18T03:06:23;101698.97;;;-2.99;95.21
75629;BME280;64213;46.452;16.994;2022-12-18T03:09:39;101704.97;;;-3.02;95.39
75629;BME280;64213;46.452;16.994;2022-12-18T03:13:08;101712.63;;;-3.07;95.74
75629;BME280;64213;46.452;16.994;2022-12-18T03:16:14;101721.13;;;-3.14;95.71
75629;BME280;64213;46.452;16.994;2022-12-18T03:19:21;101720.19;;;-3.19;95.79
75629;BME280;64213;46.452;16.994;2022-12-18T03:22:27;101713.28;;;-3.18;95.93
75629;BME280;64213;46.452;16.994;2022-12-18T03:25:32;101719.41;;;-3.13;95.95
75629;BME280;64213;46.452;16.994;2022-12-18T03:28:39;101723.03;;;-3.05;96.27
75629;BME280;64213;46.452;16.994;2022-12-18T03:31:48;101717.87;;;-3.04;95.89
75629;BME280;64213;46.452;16.994;2022-12-18T03:34:53;101720.44;;;-3.04;95.93
75629;BME280;64213;46.452;16.994;2022-12-18T03:37:57;101721.31;;;-3.05;95.84
75629;BME280;64213;46.452;16.994;2022-12-18T03:50:56;101722.84;;;-3.16;96.09
75629;BME280;64213;46.452;16.994;2022-12-18T03:54:00;101710.75;;;-3.15;95.98
75629;BME280;64213;46.452;16.994;2022-12-18T03:57:13;101720.31;;;-3.11;95.75
75629;BME280;64213;46.452;16.994;2022-12-18T04:00:18;101720.31;;;-3.11;95.74
75629;BME280;64213;46.452;16.994;2022-12-18T04:03:22;101731.41;;;-3.17;95.43
75629;BME280;64213;46.452;16.994;2022-12-18T04:06:38;101734.81;;;-3.21;95.44
75629;BME280;64213;46.452;16.994;2022-12-18T04:09:41;101726.16;;;-3.21;95.37
75629;BME280;64213;46.452;16.994;2022-12-18T04:12:45;101730.56;;;-3.17;95.31
75629;BME280;64213;46.452;16.994;2022-12-18T04:15:47;101713.06;;;-3.31;95.03
75629;BME280;64213;46.452;16.994;2022-12-18T04:18:50;101740.91;;;-3.19;94.82
75629;BME280;64213;46.452;16.994;2022-12-18T04:21:55;101743.41;;;-3.22;94.79
75629;BME280;64213;46.452;16.994;2022-12-18T04:24:57;101752.84;;;-3.24;94.83
75629;BME280;64213;46.452;16.994;2022-12-18T04:27:59;101762.41;;;-3.21;94.70
75629;BME280;64213;46.452;16.994;2022-12-18T04:31:01;101763.22;;;-3.22;94.76
75629;BME280;64213;46.452;16.994;2022-12-18T04:34:04;101752.78;;;-3.27;94.54
75629;BME280;64213;46.452;16.994;2022-12-18T04:37:06;101763.06;;;-3.30;94.57
75629;BME280;64213;46.452;16.994;2022-12-18T04:40:09;101768.19;;;-3.33;94.63
75629;BME280;64213;46.452;16.994;2022-12-18T04:43:11;101768.13;;;-3.36;94.64
75629;BME280;64213;46.452;16.994;2022-12-18T04:46:14;101765.53;;;-3.36;94.51
75629;BME280;64213;46.452;16.994;2022-12-18T04:49:16;101770.66;;;-3.39;94.63
75629;BME280;64213;46.452;16.994;2022-12-18T04:52:18;101775.03;;;-3.37;94.59
75629;BME280;64213;46.452;16.994;2022-12-18T04:55:21;101780.22;;;-3.35;94.35
75629;BME280;64213;46.452;16.994;2022-12-18T04:58:23;101770.75;;;-3.35;94.29
75629;BME280;64213;46.452;16.994;2022-12-18T05:01:25;101789.59;;;-3.40;94.23
75629;BME280;64213;46.452;16.994;2022-12-18T05:04:35;101788.69;;;-3.42;94.25
75629;BME280;64213;46.452;16.994;2022-12-18T05:07:37;101792.97;;;-3.44;94.22
75629;BME280;64213;46.452;16.994;2022-12-18T05:10:39;101793.72;;;-3.50;94.37
75629;BME280;64213;46.452;16.994;2022-12-18T05:13:42;101797.06;;;-3.54;94.55
75629;BME280;64213;46.452;16.994;2022-12-18T05:16:46;101798.56;;;-3.64;94.60
75629;BME280;64213;46.452;16.994;2022-12-18T05:19:48;101808.00;;;-3.66;94.77
75629;BME280;64213;46.452;16.994;2022-12-18T05:22:51;101802.91;;;-3.63;94.79
75629;BME280;64213;46.452;16.994;2022-12-18T05:25:54;101812.53;;;-3.57;94.76
75629;BME280;64213;46.452;16.994;2022-12-18T05:28:57;101822.03;;;-3.55;94.69
75629;BME280;64213;46.452;16.994;2022-12-18T05:31:59;101832.31;;;-3.58;94.75
75629;BME280;64213;46.452;16.994;2022-12-18T05:35:01;101833.16;;;-3.60;94.79
75629;BME280;64213;46.452;16.994;2022-12-18T05:38:03;101826.84;;;-3.71;94.82
75629;BME280;64213;46.452;16.994;2022-12-18T05:41:07;101844.69;;;-3.82;94.94
75629;BME280;64213;46.452;16.994;2022-12-18T05:44:09;101854.03;;;-3.89;95.38
75629;BME280;64213;46.452;16.994;2022-12-18T05:47:11;101854.75;;;-3.94;95.81
75629;BME280;64213;46.452;16.994;2022-12-18T05:50:13;101860.53;;;-4.03;95.81
75629;BME280;64213;46.452;16.994;2022-12-18T05:53:18;101872.41;;;-4.11;96.20
75629;BME280;64213;46.452;16.994;2022-12-18T05:56:21;101874.16;;;-4.10;96.84
75629;BME280;64213;46.452;16.994;2022-12-18T05:59:24;101874.09;;;-4.12;96.98
75629;BME280;64213;46.452;16.994;2022-12-18T06:02:26;101892.19;;;-4.12;96.70
75629;BME280;64213;46.452;16.994;2022-12-18T06:05:28;101895.53;;;-4.16;96.98
75629;BME280;64213;46.452;16.994;2022-12-18T06:08:30;101898.81;;;-4.22;97.09
75629;BME280;64213;46.452;16.994;2022-12-18T06:11:32;101908.19;;;-4.27;97.30
75629;BME280;64213;46.452;16.994;2022-12-18T06:14:34;101900.22;;;-4.34;97.35
75629;BME280;64213;46.452;16.994;2022-12-18T06:17:36;101901.91;;;-4.36;97.80
75629;BME280;64213;46.452;16.994;2022-12-18T06:20:39;101900.03;;;-4.42;98.08
75629;BME280;64213;46.452;16.994;2022-12-18T06:23:43;101904.16;;;-4.49;98.11
75629;BME280;64213;46.452;16.994;2022-12-18T06:26:45;101903.12;;;-4.54;98.25
75629;BME280;64213;46.452;16.994;2022-12-18T06:29:47;101908.34;;;-4.52;98.57
75629;BME280;64213;46.452;16.994;2022-12-18T06:32:49;101905.63;;;-4.57;98.55
75629;BME280;64213;46.452;16.994;2022-12-18T06:36:07;101914.97;;;-4.62;98.62
75629;BME280;64213;46.452;16.994;2022-12-18T06:39:09;101905.53;;;-4.60;98.82
75629;BME280;64213;46.452;16.994;2022-12-18T06:42:12;101906.34;;;-4.62;98.91
75629;BME280;64213;46.452;16.994;2022-12-18T06:45:14;101934.78;;;-4.61;99.06
75629;BME280;64213;46.452;16.994;2022-12-18T06:48:16;101932.13;;;-4.64;99.09
75629;BME280;64213;46.452;16.994;2022-12-18T06:51:20;101946.66;;;-4.66;99.04
75629;BME280;64213;46.452;16.994;2022-12-18T06:54:22;101939.84;;;-4.65;99.00
75629;BME280;64213;46.452;16.994;2022-12-18T06:57:24;101942.53;;;-4.61;99.25
75629;BME280;64213;46.452;16.994;2022-12-18T07:00:27;101954.78;;;-4.54;99.54
75629;BME280;64213;46.452;16.994;2022-12-18T07:03:29;101965.94;;;-4.55;99.42
75629;BME280;64213;46.452;16.994;2022-12-18T07:06:31;101967.69;;;-4.54;99.34
75629;BME280;64213;46.452;16.994;2022-12-18T07:09:33;101965.09;;;-4.54;99.33
75629;BME280;64213;46.452;16.994;2022-12-18T07:12:36;101967.69;;;-4.54;99.27
75629;BME280;64213;46.452;16.994;2022-12-18T07:15:38;101973.00;;;-4.49;99.17
75629;BME280;64213;46.452;16.994;2022-12-18T07:18:40;101976.03;;;-4.34;99.58
75629;BME280;64213;46.452;16.994;2022-12-18T07:21:42;101982.16;;;-4.29;99.64
75629;BME280;64213;46.452;16.994;2022-12-18T07:24:44;101980.62;;;-4.22;99.47
75629;BME280;64213;46.452;16.994;2022-12-18T07:27:46;101983.31;;;-4.19;99.36
75629;BME280;64213;46.452;16.994;2022-12-18T07:30:48;101996.37;;;-4.14;99.12
75629;BME280;64213;46.452;16.994;2022-12-18T07:33:51;101998.12;;;-4.12;98.92
75629;BME280;64213;46.452;16.994;2022-12-18T07:36:53;101990.47;;;-4.09;98.79
75629;BME280;64213;46.452;16.994;2022-12-18T07:39:55;102000.31;;;-3.95;98.65
75629;BME280;64213;46.452;16.994;2022-12-18T07:42:57;102006.78;;;-3.80;98.41
75629;BME280;64213;46.452;16.994;2022-12-18T07:46:00;102008.78;;;-3.68;98.08
75629;BME280;64213;46.452;16.994;2022-12-18T07:49:02;102006.41;;;-3.60;97.82
75629;BME280;64213;46.452;16.994;2022-12-18T07:52:04;102029.97;;;-3.49;97.33
75629;BME280;64213;46.452;16.994;2022-12-18T07:55:06;102030.34;;;-3.34;97.25
75629;BME280;64213;46.452;16.994;2022-12-18T07:58:09;102033.09;;;-3.28;96.79
75629;BME280;64213;46.452;16.994;2022-12-18T08:01:11;102040.25;;;-3.16;96.73
75629;BME280;64213;46.452;16.994;2022-12-18T08:04:14;102031.84;;;-3.08;96.26
75629;BME280;64213;46.452;16.994;2022-12-18T08:07:16;102043.44;;;-2.93;95.77
75629;BME280;64213;46.452;16.994;2022-12-18T08:10:18;102042.94;;;-2.77;95.15
75629;BME280;64213;46.452;16.994;2022-12-18T08:13:21;102035.66;;;-2.54;94.36
75629;BME280;64213;46.452;16.994;2022-12-18T08:16:23;102041.13;;;-2.40;93.67
75629;BME280;64213;46.452;16.994;2022-12-18T08:19:26;102030.19;;;-2.27;92.72
75629;BME280;64213;46.452;16.994;2022-12-18T08:22:28;102026.09;;;-2.16;92.24
75629;BME280;64213;46.452;16.994;2022-12-18T08:25:30;102028.28;;;-1.93;91.78
75629;BME280;64213;46.452;16.994;2022-12-18T08:28:33;102034.63;;;-1.76;91.39
75629;BME280;64213;46.452;16.994;2022-12-18T08:31:36;102035.22;;;-1.44;89.82
75629;BME280;64213;46.452;16.994;2022-12-18T08:34:39;102027.13;;;-1.10;88.19
75629;BME280;64213;46.452;16.994;2022-12-18T08:37:41;102021.50;;;-0.80;86.90
75629;BME280;64213;46.452;16.994;2022-12-18T08:40:43;102021.16;;;-0.44;85.13
75629;BME280;64213;46.452;16.994;2022-12-18T08:43:45;102024.00;;;-0.22;84.29
75629;BME280;64213;46.452;16.994;2022-12-18T08:47:06;102029.16;;;-0.29;84.06
75629;BME280;64213;46.452;16.994;2022-12-18T08:50:09;102032.66;;;-0.27;84.44
75629;BME280;64213;46.452;16.994;2022-12-18T08:53:11;102024.97;;;-0.17;84.18
75629;BME280;64213;46.452;16.994;2022-12-18T08:56:14;102021.72;;;0.02;83.24
75629;BME280;64213;46.452;16.994;2022-12-18T08:59:16;102028.66;;;0.00;82.81
75629;BME280;64213;46.452;16.994;2022-12-18T09:02:21;102037.25;;;-0.06;83.30
75629;BME280;64213;46.452;16.994;2022-12-18T09:05:23;102039.06;;;0.00;82.34
75629;BME280;64213;46.452;16.994;2022-12-18T09:08:26;102043.87;;;-0.31;83.51
75629;BME280;64213;46.452;16.994;2022-12-18T09:11:29;102052.22;;;-0.53;83.29
75629;BME280;64213;46.452;16.994;2022-12-18T09:14:31;102066.00;;;-0.60;83.21
75629;BME280;64213;46.452;16.994;2022-12-18T09:17:33;102070.28;;;-0.61;83.38
75629;BME280;64213;46.452;16.994;2022-12-18T09:20:36;102068.31;;;-0.79;84.32
75629;BME280;64213;46.452;16.994;2022-12-18T09:23:39;102078.75;;;-0.76;84.88
75629;BME280;64213;46.452;16.994;2022-12-18T09:26:41;102076.97;;;-0.78;85.24
75629;BME280;64213;46.452;16.994;2022-12-18T09:29:47;102075.97;;;-0.86;85.29
75629;BME280;64213;46.452;16.994;2022-12-18T09:32:49;102068.94;;;-0.95;85.14
75629;BME280;64213;46.452;16.994;2022-12-18T09:35:51;102064.50;;;-0.99;84.52
75629;BME280;64213;46.452;16.994;2022-12-18T09:38:54;102059.38;;;-0.98;84.28
75629;BME280;64213;46.452;16.994;2022-12-18T09:41:58;102059.31;;;-0.99;84.22
75629;BME280;64213;46.452;16.994;2022-12-18T09:45:00;102060.28;;;-0.94;84.39
75629;BME280;64213;46.452;16.994;2022-12-18T09:48:05;102048.19;;;-0.92;84.58
75629;BME280;64213;46.452;16.994;2022-12-18T09:51:23;102048.31;;;-0.84;84.05
75629;BME280;64213;46.452;16.994;2022-12-18T09:54:39;102038.06;;;-0.75;84.21
75629;BME280;64213;46.452;16.994;2022-12-18T09:57:49;102041.62;;;-0.68;83.94
75629;BME280;64213;46.452;16.994;2022-12-18T10:00:53;102033.09;;;-0.60;84.18
75629;BME280;64213;46.452;16.994;2022-12-18T10:03:56;102026.16;;;-0.58;83.29
75629;BME280;64213;46.452;16.994;2022-12-18T10:07:09;102028.84;;;-0.52;82.83
75629;BME280;64213;46.452;16.994;2022-12-18T10:20:51;102028.25;;;1.68;74.91
75629;BME280;64213;46.452;16.994;2022-12-18T10:27:18;102020.66;;;2.98;70.22
75629;BME280;64213;46.452;16.994;2022-12-18T10:30:24;102021.50;;;3.29;69.43
75629;BME280;64213;46.452;16.994;2022-12-18T10:33:29;102025.69;;;3.73;67.64
75629;BME280;64213;46.452;16.994;2022-12-18T10:36:31;102010.81;;;3.87;67.45
75629;BME280;64213;46.452;16.994;2022-12-18T10:39:34;102010.88;;;3.69;69.00
75629;BME280;64213;46.452;16.994;2022-12-18T10:42:36;102018.88;;;3.24;70.44
75629;BME280;64213;46.452;16.994;2022-12-18T10:45:38;102020.59;;;3.32;68.08
75629;BME280;64213;46.452;16.994;2022-12-18T10:48:51;102014.56;;;2.70;70.78
75629;BME280;64213;46.452;16.994;2022-12-18T10:52:25;102011.97;;;2.62;70.55
75629;BME280;64213;46.452;16.994;2022-12-18T10:55:32;102001.50;;;2.56;73.09
75629;BME280;64213;46.452;16.994;2022-12-18T10:58:37;102003.25;;;2.52;72.10
75629;BME280;64213;46.452;16.994;2022-12-18T11:04:52;101995.41;;;2.55;70.89
75629;BME280;64213;46.452;16.994;2022-12-18T11:07:55;101998.00;;;2.40;70.33
75629;BME280;64213;46.452;16.994;2022-12-18T11:10:58;101994.53;;;2.46;70.43
75629;BME280;64213;46.452;16.994;2022-12-18T11:14:05;101997.13;;;2.47;70.75
75629;BME280;64213;46.452;16.994;2022-12-18T11:17:21;101988.41;;;2.54;71.34
75629;BME280;64213;46.452;16.994;2022-12-18T11:20:32;101992.78;;;2.37;71.49
75629;BME280;64213;46.452;16.994;2022-12-18T11:23:36;101978.84;;;2.43;71.72
75629;BME280;64213;46.452;16.994;2022-12-18T11:26:39;101976.22;;;2.30;71.96
75629;BME280;64213;46.452;16.994;2022-12-18T11:29:41;101978.81;;;2.29;72.14
75629;BME280;64213;46.452;16.994;2022-12-18T11:36:00;101975.34;;;2.18;70.89
75629;BME280;64213;46.452;16.994;2022-12-18T11:42:46;101971.00;;;2.30;70.19
75629;BME280;64213;46.452;16.994;2022-12-18T11:45:53;101979.72;;;2.31;70.11
75629;BME280;64213;46.452;16.994;2022-12-18T11:49:22;101984.94;;;2.46;69.95
75629;BME280;64213;46.452;16.994;2022-12-18T11:52:36;101978.84;;;2.49;67.42
75629;BME280;64213;46.452;16.994;2022-12-18T11:55:51;101970.13;;;2.48;67.83
75629;BME280;64213;46.452;16.994;2022-12-18T11:59:05;101971.00;;;2.50;68.13
75629;BME280;64213;46.452;16.994;2022-12-18T12:18:28;101961.44;;;2.34;65.39
75629;BME280;64213;46.452;16.994;2022-12-18T12:21:43;101962.31;;;2.33;65.57
75629;BME280;64213;46.452;16.994;2022-12-18T12:32:31;101958.81;;;2.22;65.71
75629;BME280;64213;46.452;16.994;2022-12-18T12:36:08;101958.78;;;2.26;65.00
75629;BME280;64213;46.452;16.994;2022-12-18T12:39:22;101952.72;;;2.18;65.69
75629;BME280;64213;46.452;16.994;2022-12-18T12:42:36;101955.31;;;2.17;64.00
75629;BME280;64213;46.452;16.994;2022-12-18T12:46:07;101951.84;;;2.12;63.91
75629;BME280;64213;46.452;16.994;2022-12-18T12:49:15;101953.56;;;2.13;64.84
75629;BME280;64213;46.452;16.994;2022-12-18T12:55:28;101938.75;;;2.01;65.22
75629;BME280;64213;46.452;16.994;2022-12-18T13:05:44;101943.97;;;1.93;65.84
75629;BME280;64213;46.452;16.994;2022-12-18T13:08:59;101936.13;;;1.93;66.54
75629;BME280;64213;46.452;16.994;2022-12-18T13:12:10;101938.75;;;1.95;66.76
75629;BME280;64213;46.452;16.994;2022-12-18T13:19:18;101937.84;;;1.79;66.70
75629;BME280;64213;46.452;16.994;2022-12-18T13:22:34;101936.16;;;1.92;66.61
75629;BME280;64213;46.452;16.994;2022-12-18T13:25:37;101943.97;;;1.92;66.63
75629;BME280;64213;46.452;16.994;2022-12-18T13:41:33;101962.25;;;1.96;67.39
75629;BME280;64213;46.452;16.994;2022-12-18T13:44:40;101964.81;;;1.84;67.51
75629;BME280;64213;46.452;16.994;2022-12-18T13:47:43;101970.03;;;1.79;68.03
75629;BME280;64213;46.452;16.994;2022-12-18T13:51:12;101972.63;;;1.73;68.16
75629;BME280;64213;46.452;16.994;2022-12-18T13:54:39;101976.06;;;1.71;68.39
75629;BME280;64213;46.452;16.994;2022-12-18T13:57:42;101985.63;;;1.64;68.71
75629;BME280;64213;46.452;16.994;2022-12-18T14:00:44;101989.06;;;1.58;68.81
75629;BME280;64213;46.452;16.994;2022-12-18T14:03:47;101989.91;;;1.48;69.33
75629;BME280;64213;46.452;16.994;2022-12-18T14:06:55;101995.06;;;1.42;69.72
75629;BME280;64213;46.452;16.994;2022-12-18T14:09:59;101997.66;;;1.34;69.88
75629;BME280;64213;46.452;16.994;2022-12-18T14:13:35;102000.22;;;1.30;70.30
75629;BME280;64213;46.452;16.994;2022-12-18T14:16:40;101998.47;;;1.26;70.92
75629;BME280;64213;46.452;16.994;2022-12-18T14:19:49;101994.09;;;1.20;70.75
75629;BME280;64213;46.452;16.994;2022-12-18T14:22:52;101995.81;;;1.15;71.37
75629;BME280;64213;46.452;16.994;2022-12-18T14:25:54;101996.63;;;1.06;71.72
75629;BME280;64213;46.452;16.994;2022-12-18T14:29:19;102006.16;;;1.06;71.71
75629;BME280;64213;46.452;16.994;2022-12-18T14:32:22;101998.34;;;1.06;72.10
75629;BME280;64213;46.452;16.994;2022-12-18T14:35:24;102014.84;;;1.03;72.47
75629;BME280;64213;46.452;16.994;2022-12-18T14:38:28;102015.66;;;0.98;73.65
75629;BME280;64213;46.452;16.994;2022-12-18T14:41:30;102020.81;;;0.91;74.09
75629;BME280;64213;46.452;16.994;2022-12-18T14:44:34;102022.47;;;0.82;74.55
75629;BME280;64213;46.452;16.994;2022-12-18T14:47:57;102024.16;;;0.75;75.16
75629;BME280;64213;46.452;16.994;2022-12-18T14:51:05;102017.09;;;0.63;75.96
75629;BME280;64213;46.452;16.994;2022-12-18T14:54:16;102028.31;;;0.53;76.60
75629;BME280;64213;46.452;16.994;2022-12-18T14:57:36;102030.72;;;0.33;77.56
75629;BME280;64213;46.452;16.994;2022-12-18T15:00:41;102035.81;;;0.19;78.48
75629;BME280;64213;46.452;16.994;2022-12-18T15:03:47;102039.09;;;0.05;78.81
75629;BME280;64213;46.452;16.994;2022-12-18T15:07:03;102048.47;;;-0.07;79.92
75629;BME280;64213;46.452;16.994;2022-12-18T15:10:13;102058.72;;;-0.22;79.82
75629;BME280;64213;46.452;16.994;2022-12-18T15:13:22;102060.41;;;-0.24;80.12
75629;BME280;64213;46.452;16.994;2022-12-18T15:16:27;102058.59;;;-0.31;80.33
75629;BME280;64213;46.452;16.994;2022-12-18T15:19:40;102062.72;;;-0.47;81.47
75629;BME280;64213;46.452;16.994;2022-12-18T15:22:47;102065.97;;;-0.63;81.77
75629;BME280;64213;46.452;16.994;2022-12-18T15:29:00;102075.09;;;-0.88;83.34
75629;BME280;64213;46.452;16.994;2022-12-18T15:32:17;102081.00;;;-0.97;84.07
75629;BME280;64213;46.452;16.994;2022-12-18T15:35:25;102087.28;;;-0.84;83.50
75629;BME280;64213;46.452;16.994;2022-12-18T15:38:28;102077.69;;;-0.87;83.11
75629;BME280;64213;46.452;16.994;2022-12-18T15:41:35;102081.91;;;-0.95;83.84
75629;BME280;64213;46.452;16.994;2022-12-18T15:44:39;102086.91;;;-1.07;84.51
75629;BME280;64213;46.452;16.994;2022-12-18T15:47:42;102085.81;;;-1.20;85.29
75629;BME280;64213;46.452;16.994;2022-12-18T15:50:45;102083.88;;;-1.32;85.84
75629;BME280;64213;46.452;16.994;2022-12-18T15:53:50;102079.50;;;-1.34;85.76
75629;BME280;64213;46.452;16.994;2022-12-18T15:56:54;102079.50;;;-1.36;85.79
75629;BME280;64213;46.452;16.994;2022-12-18T16:00:16;102083.06;;;-1.29;85.23
75629;BME280;64213;46.452;16.994;2022-12-18T16:03:19;102102.09;;;-1.30;86.04
75629;BME280;64213;46.452;16.994;2022-12-18T16:06:22;102097.78;;;-1.28;85.72
75629;BME280;64213;46.452;16.994;2022-12-18T16:09:25;102094.22;;;-1.35;85.67
75629;BME280;64213;46.452;16.994;2022-12-18T16:12:32;102102.78;;;-1.39;86.10
75629;BME280;64213;46.452;16.994;2022-12-18T16:15:37;102102.69;;;-1.45;86.38
75629;BME280;64213;46.452;16.994;2022-12-18T16:18:40;102101.94;;;-1.38;85.80
75629;BME280;64213;46.452;16.994;2022-12-18T16:21:45;102101.81;;;-1.44;86.58
75629;BME280;64213;46.452;16.994;2022-12-18T16:24:50;102098.25;;;-1.51;86.92
75629;BME280;64213;46.452;16.994;2022-12-18T16:27:57;102087.09;;;-1.45;86.71
75629;BME280;64213;46.452;16.994;2022-12-18T16:31:00;102082.03;;;-1.39;86.56
75629;BME280;64213;46.452;16.994;2022-12-18T16:34:33;102074.25;;;-1.37;86.25
75629;BME280;64213;46.452;16.994;2022-12-18T16:37:37;102089.72;;;-1.45;86.05
75629;BME280;64213;46.452;16.994;2022-12-18T16:40:42;102089.66;;;-1.48;86.69
75629;BME280;64213;46.452;16.994;2022-12-18T16:44:04;102090.50;;;-1.49;86.92
75629;BME280;64213;46.452;16.994;2022-12-18T16:47:07;102090.41;;;-1.54;87.17
75629;BME280;64213;46.452;16.994;2022-12-18T16:50:12;102092.91;;;-1.58;87.12
75629;BME280;64213;46.452;16.994;2022-12-18T16:53:15;102108.37;;;-1.63;87.44
75629;BME280;64213;46.452;16.994;2022-12-18T16:56:19;102119.47;;;-1.72;87.70
75629;BME280;64213;46.452;16.994;2022-12-18T16:59:24;102121.03;;;-1.80;88.32
75629;BME280;64213;46.452;16.994;2022-12-18T17:02:29;102118.22;;;-1.91;88.69
75629;BME280;64213;46.452;16.994;2022-12-18T17:05:33;102121.56;;;-1.96;89.39
75629;BME280;64213;46.452;16.994;2022-12-18T17:08:38;102124.75;;;-2.09;89.54
75629;BME280;64213;46.452;16.994;2022-12-18T17:11:42;102127.22;;;-2.16;90.22
75629;BME280;64213;46.452;16.994;2022-12-18T17:14:49;102125.59;;;-2.11;91.14
75629;BME280;64213;46.452;16.994;2022-12-18T17:17:53;102130.66;;;-2.17;91.21
75629;BME280;64213;46.452;16.994;2022-12-18T17:21:16;102127.12;;;-2.19;91.65
75629;BME280;64213;46.452;16.994;2022-12-18T17:24:20;102125.34;;;-2.23;91.48
75629;BME280;64213;46.452;16.994;2022-12-18T17:27:24;102130.50;;;-2.23;91.82
75629;BME280;64213;46.452;16.994;2022-12-18T17:30:28;102128.59;;;-2.30;91.99
75629;BME280;64213;46.452;16.994;2022-12-18T17:33:31;102136.31;;;-2.33;92.59
75629;BME280;64213;46.452;16.994;2022-12-18T17:36:37;102126.84;;;-2.32;92.96
75629;BME280;64213;46.452;16.994;2022-12-18T17:39:42;102130.88;;;-2.45;92.48
75629;BME280;64213;46.452;16.994;2022-12-18T17:42:45;102131.53;;;-2.54;92.78
75629;BME280;64213;46.452;16.994;2022-12-18T17:45:49;102131.47;;;-2.57;93.43
75629;BME280;64213;46.452;16.994;2022-12-18T17:48:57;102134.13;;;-2.52;94.16
75629;BME280;64213;46.452;16.994;2022-12-18T17:52:00;102148.66;;;-2.61;93.97